createdAt,value
2022-07-29T00:01:43.685Z,101714.72
2022-07-29T00:04:12.099Z,101753.19
2022-07-29T00:06:40.940Z,101725.91
2022-07-29T00:09:12.584Z,101707.28
2022-07-29T00:11:40.832Z,101718.69
2022-07-29T00:14:10.641Z,101717.16
2022-07-29T00:16:41.185Z,101718.56
2022-07-29T00:19:09.291Z,101684.81
2022-07-29T00:21:45.208Z,101704.91
2022-07-29T00:24:16.389Z,101689.91
2022-07-29T00:26:44.800Z,101688.03
2022-07-29T00:29:33.475Z,101678.97
2022-07-29T00:32:06.077Z,101677.03
2022-07-29T00:34:53.722Z,101670.91
2022-07-29T00:37:23.889Z,101635.34
2022-07-29T00:39:53.430Z,101627.72
2022-07-29T00:42:23.618Z,101638.53
2022-07-29T00:44:52.881Z,101600.13
2022-07-29T00:47:20.950Z,101611.88
2022-07-29T00:49:50.117Z,101596.34
2022-07-29T00:52:20.539Z,101614.66
2022-07-29T00:54:49.045Z,101593.94
2022-07-29T00:57:21.138Z,101570.88
2022-07-29T00:59:49.280Z,101568.00
2022-07-29T01:02:23.849Z,101578.31
2022-07-29T01:04:52.925Z,101569.88
2022-07-29T01:07:28.968Z,101582.16
2022-07-29T01:09:58.005Z,101567.63
2022-07-29T01:12:30.323Z,101565.22
2022-07-29T01:15:00.620Z,101557.97
2022-07-29T01:17:33.718Z,101545.94
2022-07-29T01:20:11.748Z,101536.28
2022-07-29T01:23:37.041Z,101552.75
2022-07-29T01:26:49.045Z,101535.41
2022-07-29T01:29:29.763Z,101548.75
2022-07-29T01:32:08.278Z,101544.03
2022-07-29T01:34:59.034Z,101568.34
2022-07-29T01:37:33.482Z,101552.28
2022-07-29T01:40:05.018Z,101569.75
2022-07-29T01:42:37.654Z,101585.22
2022-07-29T01:45:16.517Z,101564.66
2022-07-29T01:48:02.579Z,101604.88
2022-07-29T01:50:35.614Z,101596.00
2022-07-29T01:53:07.760Z,101578.50
2022-07-29T01:55:40.668Z,101586.22
2022-07-29T01:58:10.429Z,101575.94
2022-07-29T02:00:41.312Z,101557.78
2022-07-29T02:03:15.137Z,101577.19
2022-07-29T02:05:47.577Z,101555.22
2022-07-29T02:08:21.396Z,101564.78
2022-07-29T02:10:52.220Z,101544.81
2022-07-29T02:13:23.059Z,101540.66
2022-07-29T02:15:55.584Z,101562.94
2022-07-29T02:18:28.132Z,101538.53
2022-07-29T02:20:59.129Z,101552.75
2022-07-29T02:23:32.929Z,101563.63
2022-07-29T02:26:29.723Z,101564.53
2022-07-29T02:29:00.203Z,101573.41
2022-07-29T02:31:35.018Z,101556.84
2022-07-29T02:34:05.537Z,101575.88
2022-07-29T02:36:36.182Z,101569.88
2022-07-29T02:39:05.629Z,101580.53
2022-07-29T02:41:42.670Z,101584.00
2022-07-29T02:44:14.275Z,101585.50
2022-07-29T02:46:50.215Z,101594.16
2022-07-29T02:49:32.907Z,101601.22
2022-07-29T02:52:05.672Z,101603.94
2022-07-29T02:54:42.767Z,101598.44
2022-07-29T02:57:21.566Z,101609.81
2022-07-29T02:59:53.683Z,101600.22
2022-07-29T03:02:24.288Z,101614.22
2022-07-29T03:04:55.040Z,101607.28
2022-07-29T03:07:26.026Z,101611.47
2022-07-29T03:09:55.139Z,101627.53
2022-07-29T03:12:24.450Z,101597.75
2022-07-29T03:14:59.988Z,101599.22
2022-07-29T03:17:29.921Z,101604.47
2022-07-29T03:20:01.020Z,101632.22
2022-07-29T03:22:31.743Z,101596.56
2022-07-29T03:25:10.319Z,101600.91
2022-07-29T03:27:40.588Z,101606.28
2022-07-29T03:30:12.476Z,101604.69
2022-07-29T03:32:47.946Z,101632.34
2022-07-29T03:35:17.588Z,101625.34
2022-07-29T03:37:45.963Z,101614.22
2022-07-29T03:40:20.346Z,101629.91
2022-07-29T03:42:51.452Z,101645.69
2022-07-29T03:45:21.842Z,101647.53
2022-07-29T03:47:59.944Z,101616.50
2022-07-29T03:50:30.944Z,101628.56
2022-07-29T03:53:00.287Z,101621.84
2022-07-29T03:55:32.946Z,101624.56
2022-07-29T03:58:04.378Z,101649.56
2022-07-29T04:00:37.304Z,101634.88
2022-07-29T04:03:10.613Z,101659.13
2022-07-29T04:05:42.645Z,101648.75
2022-07-29T04:08:10.614Z,101635.75
2022-07-29T04:10:43.017Z,101659.28
2022-07-29T04:13:11.083Z,101650.50
2022-07-29T04:15:41.378Z,101639.47
2022-07-29T04:18:12.033Z,101627.94
2022-07-29T04:20:42.064Z,101632.41
2022-07-29T04:23:10.318Z,101667.34
2022-07-29T04:25:42.800Z,101641.44
2022-07-29T04:28:12.354Z,101663.53
2022-07-29T04:30:40.700Z,101660.00
2022-07-29T04:33:10.993Z,101651.22
2022-07-29T04:35:49.866Z,101625.81
2022-07-29T04:38:19.244Z,101670.13
2022-07-29T04:40:52.132Z,101671.72
2022-07-29T04:43:23.141Z,101658.03
2022-07-29T04:45:53.625Z,101680.25
2022-07-29T04:48:28.513Z,101649.72
2022-07-29T04:50:57.021Z,101657.59
2022-07-29T04:53:25.929Z,101686.16
2022-07-29T04:55:56.110Z,101651.44
2022-07-29T04:58:25.247Z,101651.19
2022-07-29T05:00:55.500Z,101675.66
2022-07-29T05:03:25.160Z,101687.47
2022-07-29T05:05:54.133Z,101670.00
2022-07-29T05:08:22.493Z,101671.59
2022-07-29T05:10:50.907Z,101682.88
2022-07-29T05:13:18.911Z,101678.94
2022-07-29T05:15:48.205Z,101655.06
2022-07-29T05:18:16.474Z,101675.06
2022-07-29T05:20:48.188Z,101680.88
2022-07-29T05:23:18.004Z,101681.34
2022-07-29T05:25:47.531Z,101663.53
2022-07-29T05:28:16.040Z,101668.94
2022-07-29T05:30:45.528Z,101655.66
2022-07-29T05:33:36.159Z,101677.31
2022-07-29T05:36:04.168Z,101683.56
2022-07-29T05:38:32.227Z,101690.44
2022-07-29T05:41:01.450Z,101700.13
2022-07-29T05:43:29.719Z,101666.09
2022-07-29T05:45:58.304Z,101678.94
2022-07-29T05:48:26.597Z,101702.78
2022-07-29T05:50:54.649Z,101709.63
2022-07-29T05:53:24.522Z,101702.78
2022-07-29T05:55:53.153Z,101695.84
2022-07-29T05:58:21.444Z,101713.06
2022-07-29T06:00:51.054Z,101703.72
2022-07-29T06:03:19.012Z,101708.06
2022-07-29T06:05:47.188Z,101709.72
2022-07-29T06:08:15.282Z,101712.72
2022-07-29T06:10:45.284Z,101738.25
2022-07-29T06:13:13.480Z,101733.31
2022-07-29T06:15:41.835Z,101718.75
2022-07-29T06:18:11.222Z,101745.53
2022-07-29T06:20:39.135Z,101747.34
2022-07-29T06:23:06.996Z,101735.22
2022-07-29T06:25:37.642Z,101753.88
2022-07-29T06:28:07.369Z,101739.41
2022-07-29T06:30:35.465Z,101735.91
2022-07-29T06:33:03.745Z,101736.78
2022-07-29T06:35:39.511Z,101746.03
2022-07-29T06:38:30.732Z,101743.00
2022-07-29T06:41:03.958Z,101733.75
2022-07-29T06:43:52.477Z,101748.97
2022-07-29T06:46:23.910Z,101741.44
2022-07-29T06:48:53.298Z,101757.84
2022-07-29T06:51:23.083Z,101736.16
2022-07-29T06:54:00.168Z,101742.47
2022-07-29T06:56:39.650Z,101750.63
2022-07-29T06:59:35.562Z,101752.47
2022-07-29T07:02:04.409Z,101731.50
2022-07-29T07:04:36.063Z,101746.25
2022-07-29T07:07:04.095Z,101735.19
2022-07-29T07:09:40.044Z,101728.47
2022-07-29T07:12:09.596Z,101743.22
2022-07-29T07:14:40.789Z,101707.91
2022-07-29T07:17:10.014Z,101730.38
2022-07-29T07:19:38.203Z,101722.84
2022-07-29T07:22:06.241Z,101701.22
2022-07-29T07:24:37.271Z,101698.81
2022-07-29T07:27:05.477Z,101702.44
2022-07-29T07:29:33.840Z,101699.06
2022-07-29T07:32:07.119Z,101703.72
2022-07-29T07:34:35.378Z,101684.00
2022-07-29T07:37:03.480Z,101698.50
2022-07-29T07:39:32.862Z,101711.31
2022-07-29T07:42:03.732Z,101696.19
2022-07-29T07:44:46.277Z,101708.47
2022-07-29T07:47:27.958Z,101722.69
2022-07-29T07:49:57.339Z,101716.88
2022-07-29T07:52:25.363Z,101711.06
2022-07-29T07:54:55.505Z,101694.94
2022-07-29T07:57:28.591Z,101683.59
2022-07-29T07:59:56.640Z,101669.84
2022-07-29T08:02:26.156Z,101679.50
2022-07-29T08:04:54.156Z,101650.72
2022-07-29T08:07:22.104Z,101626.38
2022-07-29T08:09:50.200Z,101625.56
2022-07-29T08:12:18.308Z,101593.06
2022-07-29T08:14:46.329Z,101577.50
2022-07-29T08:17:17.367Z,101556.19
2022-07-29T08:19:50.811Z,101554.56
2022-07-29T08:22:18.891Z,101536.81
2022-07-29T08:24:53.375Z,101541.69
2022-07-29T08:27:42.348Z,101542.97
2022-07-29T08:30:21.621Z,101527.00
2022-07-29T08:32:54.128Z,101513.31
2022-07-29T08:35:26.860Z,101480.91
2022-07-29T08:37:55.912Z,101439.59
2022-07-29T08:40:32.007Z,101271.66
2022-07-29T08:43:01.356Z,101371.28
2022-07-29T08:45:31.801Z,101373.72
2022-07-29T08:48:00.281Z,101352.72
2022-07-29T08:50:29.925Z,101384.16
2022-07-29T08:53:00.075Z,101380.34
2022-07-29T08:55:29.135Z,101363.28
2022-07-29T08:57:57.652Z,101367.44
2022-07-29T09:00:27.226Z,101364.28
2022-07-29T09:02:59.710Z,101358.00
2022-07-29T09:05:30.743Z,101359.78
2022-07-29T09:07:58.826Z,101322.91
2022-07-29T09:10:27.053Z,101321.38
2022-07-29T09:12:57.058Z,101307.91
2022-07-29T09:15:27.925Z,101300.53
2022-07-29T09:17:59.762Z,101287.81
2022-07-29T09:20:51.566Z,101274.22
2022-07-29T09:23:22.874Z,101297.53
2022-07-29T09:25:56.727Z,101263.66
2022-07-29T09:28:25.741Z,101292.13
2022-07-29T09:31:00.855Z,101292.28
2022-07-29T09:33:35.523Z,101285.47
2022-07-29T09:36:08.357Z,101269.53
2022-07-29T09:38:38.517Z,101277.63
2022-07-29T09:41:09.105Z,101290.38
2022-07-29T09:43:37.165Z,101273.25
2022-07-29T09:46:14.592Z,101285.13
2022-07-29T09:48:42.669Z,101276.34
2022-07-29T09:51:25.459Z,101291.41
2022-07-29T09:53:58.614Z,101280.66
2022-07-29T09:56:41.466Z,101290.38
2022-07-29T09:59:12.132Z,101314.19
2022-07-29T10:01:40.240Z,101324.94
2022-07-29T10:04:08.773Z,101323.22
2022-07-29T10:07:14.332Z,101292.53
2022-07-29T10:09:54.425Z,101327.41
2022-07-29T10:12:22.730Z,101302.66
2022-07-29T10:14:51.415Z,101287.19
2022-07-29T10:17:21.203Z,101283.84
2022-07-29T10:19:51.945Z,101267.72
2022-07-29T10:22:43.633Z,101264.06
2022-07-29T10:25:10.747Z,101297.94
2022-07-29T10:27:40.209Z,101267.59
2022-07-29T10:30:12.074Z,101275.16
2022-07-29T10:33:20.778Z,101264.81
2022-07-29T10:36:04.778Z,101282.25
2022-07-29T10:38:58.573Z,101259.31
2022-07-29T10:41:46.778Z,101255.84
2022-07-29T10:44:22.918Z,101242.88
2022-07-29T10:46:53.246Z,101214.31
2022-07-29T10:49:25.207Z,101227.66
2022-07-29T10:51:59.117Z,101236.31
2022-07-29T10:54:56.509Z,101230.53
2022-07-29T10:57:54.243Z,101201.44
2022-07-29T11:00:34.947Z,101223.22
2022-07-29T11:03:10.875Z,101218.38
2022-07-29T11:05:59.633Z,101233.59
2022-07-29T11:08:29.072Z,101215.03
2022-07-29T11:11:39.624Z,101213.41
2022-07-29T11:14:14.921Z,101207.72
2022-07-29T11:17:06.380Z,101196.00
2022-07-29T11:19:50.811Z,101193.16
2022-07-29T11:22:34.562Z,101189.38
2022-07-29T11:25:18.885Z,101193.69
2022-07-29T11:28:17.507Z,101182.88
2022-07-29T11:30:54.496Z,101178.69
2022-07-29T11:33:54.625Z,101164.00
2022-07-29T11:39:37.139Z,101151.53
2022-07-29T11:42:41.845Z,101163.56
2022-07-29T11:45:42.155Z,101168.13
2022-07-29T11:48:29.894Z,101157.88
2022-07-29T11:50:52.530Z,101161.88
2022-07-29T11:53:23.192Z,101156.78
2022-07-29T11:55:58.132Z,101167.78
2022-07-29T11:58:28.156Z,101166.22
2022-07-29T12:00:57.004Z,101178.78
2022-07-29T12:03:34.886Z,101166.63
2022-07-29T12:06:15.025Z,101172.44
2022-07-29T12:07:03.844Z,101154.03
2022-07-29T12:08:44.959Z,101151.00
2022-07-29T12:11:20.589Z,101135.97
2022-07-29T12:13:50.867Z,101137.06
2022-07-29T12:16:25.318Z,101135.50
2022-07-29T12:19:02.094Z,101125.53
2022-07-29T12:21:52.331Z,101135.97
2022-07-29T12:24:26.859Z,101131.59
2022-07-29T12:26:58.534Z,101111.56
2022-07-29T12:29:34.929Z,101111.22
2022-07-29T12:32:15.079Z,101110.97
2022-07-29T12:34:49.564Z,101111.06
2022-07-29T12:37:17.653Z,101104.00
2022-07-29T12:39:46.427Z,101088.38
2022-07-29T12:42:18.808Z,101095.28
2022-07-29T12:44:53.437Z,101118.69
2022-07-29T12:47:22.878Z,101101.84
2022-07-29T12:49:53.315Z,101088.38
2022-07-29T12:52:31.976Z,101088.50
2022-07-29T12:55:02.225Z,101102.94
2022-07-29T12:57:30.285Z,101097.94
2022-07-29T13:00:03.982Z,101088.91
2022-07-29T13:02:32.153Z,101071.47
2022-07-29T13:05:02.927Z,101076.94
2022-07-29T13:07:54.442Z,101056.22
2022-07-29T13:10:24.928Z,101061.75
2022-07-29T13:13:09.098Z,101080.34
2022-07-29T13:15:38.058Z,101062.28
2022-07-29T13:18:07.589Z,101080.22
2022-07-29T13:20:37.144Z,101068.88
2022-07-29T13:23:05.168Z,101050.94
2022-07-29T13:25:34.488Z,101069.84
2022-07-29T13:28:02.652Z,101059.66
2022-07-29T13:30:32.823Z,101036.16
2022-07-29T13:33:01.203Z,101013.09
2022-07-29T13:35:32.932Z,101016.94
2022-07-29T13:38:08.749Z,101020.72
2022-07-29T13:40:39.183Z,101014.63
2022-07-29T13:43:07.054Z,101008.97
2022-07-29T13:45:35.097Z,101032.97
2022-07-29T13:48:07.380Z,101008.84
2022-07-29T13:50:37.674Z,101026.00
2022-07-29T13:53:05.701Z,101026.22
2022-07-29T13:55:35.111Z,101019.16
2022-07-29T14:00:47.753Z,101034.88
2022-07-29T14:03:19.680Z,101018.56
2022-07-29T14:05:48.629Z,101002.31
2022-07-29T14:08:17.775Z,101031.88
2022-07-29T14:10:47.284Z,101015.84
2022-07-29T14:13:24.512Z,101013.78
2022-07-29T14:15:53.734Z,101016.56
2022-07-29T14:18:21.687Z,101006.84
2022-07-29T14:20:49.855Z,101018.75
2022-07-29T14:23:17.795Z,100997.72
2022-07-29T14:25:49.701Z,101013.41
2022-07-29T14:28:21.164Z,100998.66
2022-07-29T14:30:49.396Z,100997.41
2022-07-29T14:33:17.502Z,100982.25
2022-07-29T14:35:47.628Z,100983.56
2022-07-29T14:38:15.584Z,100984.03
2022-07-29T14:40:43.725Z,100993.66
2022-07-29T14:43:18.932Z,100983.34
2022-07-29T14:45:49.676Z,100988.22
2022-07-29T14:48:17.914Z,100982.13
2022-07-29T14:50:46.175Z,100974.38
2022-07-29T14:53:14.250Z,100961.75
2022-07-29T14:55:42.966Z,100970.50
2022-07-29T14:58:16.273Z,100963.19
2022-07-29T15:00:46.315Z,100951.63
2022-07-29T15:03:20.671Z,100953.81
2022-07-29T15:05:52.440Z,100956.31
2022-07-29T15:08:20.490Z,100962.41
2022-07-29T15:10:48.449Z,100935.94
2022-07-29T15:13:16.485Z,100930.66
2022-07-29T15:15:49.764Z,100935.59
2022-07-29T15:18:25.404Z,100936.75
2022-07-29T15:20:55.011Z,100936.00
2022-07-29T15:23:22.914Z,100939.44
2022-07-29T15:25:50.991Z,100942.38
2022-07-29T15:28:25.018Z,100957.09
2022-07-29T15:31:09.506Z,100947.75
2022-07-29T15:33:37.687Z,100947.00
2022-07-29T15:36:06.756Z,100940.25
2022-07-29T15:38:34.776Z,100943.44
2022-07-29T15:41:03.111Z,100939.38
2022-07-29T15:43:34.023Z,100931.47
2022-07-29T15:46:21.568Z,100917.59
2022-07-29T15:48:52.289Z,100924.69
2022-07-29T15:51:20.267Z,100930.69
2022-07-29T15:53:53.274Z,100924.16
2022-07-29T15:56:22.392Z,100938.59
2022-07-29T15:58:50.753Z,100927.88
2022-07-29T16:01:21.414Z,100926.59
2022-07-29T16:03:49.985Z,100921.38
2022-07-29T16:06:20.365Z,100941.19
2022-07-29T16:08:48.402Z,100930.81
2022-07-29T16:11:16.465Z,100916.66
2022-07-29T16:13:44.573Z,100917.31
2022-07-29T16:16:15.231Z,100902.38
2022-07-29T16:18:44.547Z,100929.91
2022-07-29T16:21:12.505Z,100902.38
2022-07-29T16:23:40.557Z,100910.56
2022-07-29T16:26:08.932Z,100907.78
2022-07-29T16:28:36.823Z,100891.72
2022-07-29T16:31:06.379Z,100899.59
2022-07-29T16:33:54.768Z,100905.22
2022-07-29T16:36:24.327Z,100903.72
2022-07-29T16:38:52.289Z,100886.63
2022-07-29T16:41:20.467Z,100899.28
2022-07-29T16:43:48.332Z,100882.59
2022-07-29T16:46:19.169Z,100887.19
2022-07-29T16:48:48.639Z,100887.75
2022-07-29T16:51:17.305Z,100887.41
2022-07-29T16:53:50.422Z,100875.16
2022-07-29T16:56:18.533Z,100877.88
2022-07-29T16:58:47.518Z,100875.72
2022-07-29T17:01:18.106Z,100869.34
2022-07-29T17:04:00.623Z,100865.31
2022-07-29T17:06:36.456Z,100854.81
2022-07-29T17:09:15.091Z,100870.56
2022-07-29T17:11:52.910Z,100851.22
2022-07-29T17:14:28.927Z,100847.81
2022-07-29T17:17:04.193Z,100850.94
2022-07-29T17:19:43.581Z,100859.31
2022-07-29T17:22:17.237Z,100853.19
2022-07-29T17:24:49.094Z,100863.03
2022-07-29T17:27:18.170Z,100860.13
2022-07-29T17:29:47.079Z,100844.22
2022-07-29T17:32:15.989Z,100844.91
2022-07-29T17:34:44.805Z,100845.47
2022-07-29T17:37:12.299Z,100859.19
2022-07-29T17:39:42.529Z,100861.22
2022-07-29T17:42:13.718Z,100864.16
2022-07-29T17:44:42.624Z,100868.78
2022-07-29T17:47:16.083Z,100872.91
2022-07-29T17:49:44.853Z,100869.88
2022-07-29T17:52:12.943Z,100876.28
2022-07-29T17:54:41.918Z,100876.72
2022-07-29T17:57:11.124Z,100882.16
2022-07-29T17:59:39.007Z,100890.75
2022-07-29T18:02:06.943Z,100888.47
2022-07-29T18:04:34.786Z,100889.19
2022-07-29T18:07:08.625Z,100891.31
2022-07-29T18:09:38.686Z,100888.22
2022-07-29T18:12:07.401Z,100892.66
2022-07-29T18:14:36.869Z,100887.47
2022-07-29T18:17:04.963Z,100897.38
2022-07-29T18:19:32.915Z,100921.34
2022-07-29T18:22:05.279Z,100919.91
2022-07-29T18:24:33.934Z,100914.63
2022-07-29T18:27:02.259Z,100921.31
2022-07-29T18:29:31.493Z,100922.03
2022-07-29T18:32:01.506Z,100918.16
2022-07-29T18:34:31.828Z,100921.19
2022-07-29T18:37:00.654Z,100917.25
2022-07-29T18:39:29.004Z,100923.72
2022-07-29T18:41:56.933Z,100925.50
2022-07-29T18:44:24.878Z,100924.22
2022-07-29T18:46:54.295Z,100922.44
2022-07-29T18:49:23.930Z,100929.72
2022-07-29T18:51:52.430Z,100945.69
2022-07-29T18:54:20.807Z,100954.16
2022-07-29T18:56:48.644Z,100955.84
2022-07-29T18:59:19.615Z,100957.25
2022-07-29T19:01:48.532Z,100974.81
2022-07-29T19:04:17.352Z,100986.47
2022-07-29T19:06:46.661Z,101003.94
2022-07-29T19:09:14.833Z,101027.38
2022-07-29T19:11:42.775Z,101025.22
2022-07-29T19:14:10.988Z,101025.00
2022-07-29T19:16:39.224Z,101029.63
2022-07-29T19:19:08.645Z,101044.75
2022-07-29T19:21:36.527Z,101124.13
2022-07-29T19:24:12.373Z,101171.22
2022-07-29T19:26:46.798Z,101253.75
2022-07-29T19:29:15.490Z,101263.81
2022-07-29T19:31:43.821Z,101301.56
2022-07-29T19:34:12.104Z,101341.38
2022-07-29T19:36:40.143Z,101382.22
2022-07-29T19:39:09.604Z,101433.13
2022-07-29T19:41:38.004Z,101441.63
2022-07-29T19:44:06.246Z,101445.00
2022-07-29T19:46:34.776Z,101462.41
2022-07-29T19:49:06.552Z,101440.25
2022-07-29T19:51:34.765Z,101348.66
2022-07-29T19:54:03.072Z,101285.06
2022-07-29T19:56:40.120Z,101342.00
2022-07-29T19:59:10.121Z,101526.91
2022-07-29T20:01:38.173Z,101580.91
2022-07-29T20:04:06.387Z,101624.13
2022-07-29T20:06:35.180Z,101616.31
2022-07-29T20:09:03.543Z,101629.03
2022-07-29T20:11:32.327Z,101634.81
2022-07-29T20:14:02.346Z,101631.44
2022-07-29T20:16:30.547Z,101635.28
2022-07-29T20:18:58.351Z,101634.97
2022-07-29T20:21:26.790Z,101635.72
2022-07-29T20:24:00.299Z,101630.84
2022-07-29T20:26:28.627Z,101629.75
2022-07-29T20:28:56.679Z,101633.53
2022-07-29T20:31:26.211Z,101622.56
2022-07-29T20:33:54.215Z,101614.38
2022-07-29T20:36:22.375Z,101607.75
2022-07-29T20:38:50.378Z,101626.78
2022-07-29T20:41:18.356Z,101617.84
2022-07-29T20:43:46.641Z,101621.28
2022-07-29T20:46:14.592Z,101612.56
2022-07-29T20:48:44.066Z,101621.44
2022-07-29T20:51:12.209Z,101621.88
2022-07-29T20:53:40.948Z,101604.28
2022-07-29T20:56:09.221Z,101615.78
2022-07-29T20:58:38.240Z,101599.66
2022-07-29T21:01:07.048Z,101597.31
2022-07-29T21:03:35.447Z,101580.56
2022-07-29T21:06:06.197Z,101595.34
2022-07-29T21:08:34.695Z,101585.84
2022-07-29T21:11:03.781Z,101583.28
2022-07-29T21:13:32.980Z,101586.78
2022-07-29T21:16:04.305Z,101578.44
2022-07-29T21:18:37.438Z,101578.88
2022-07-29T21:21:08.210Z,101579.38
2022-07-29T21:23:36.479Z,101571.38
2022-07-29T21:26:12.487Z,101569.03
2022-07-29T21:28:40.873Z,101570.16
2022-07-29T21:31:12.569Z,101563.88
2022-07-29T21:33:42.743Z,101554.78
2022-07-29T21:36:46.805Z,101555.06
2022-07-29T21:39:06.919Z,101534.56
2022-07-29T21:41:35.503Z,101562.06
2022-07-29T21:44:03.646Z,101542.56
2022-07-29T21:46:32.748Z,101551.59
2022-07-29T21:49:02.719Z,101565.16
2022-07-29T21:51:32.185Z,101560.22
2022-07-29T21:54:02.069Z,101539.69
2022-07-29T21:56:37.526Z,101559.78
2022-07-29T21:59:05.412Z,101567.72
2022-07-29T22:01:39.056Z,101568.59
2022-07-29T22:04:07.693Z,101571.13
2022-07-29T22:06:37.285Z,101576.69
2022-07-29T22:09:05.522Z,101573.72
2022-07-29T22:11:33.784Z,101572.16
2022-07-29T22:14:01.770Z,101563.59
2022-07-29T22:16:30.214Z,101574.13
2022-07-29T22:18:58.208Z,101573.94
2022-07-29T22:21:26.211Z,101572.94
2022-07-29T22:23:55.503Z,101574.19
2022-07-29T22:26:23.367Z,101580.00
2022-07-29T22:28:51.268Z,101583.16
2022-07-29T22:31:19.243Z,101572.94
2022-07-29T22:33:47.336Z,101578.13
2022-07-29T22:36:15.241Z,101579.19
2022-07-29T22:38:43.146Z,101570.00
2022-07-29T22:41:12.752Z,101569.19
2022-07-29T22:43:43.548Z,101561.88
2022-07-29T22:46:12.072Z,101554.69
2022-07-29T22:48:47.397Z,101558.66
2022-07-29T22:51:15.360Z,101551.28
2022-07-29T22:53:50.445Z,101547.66
2022-07-29T22:56:21.170Z,101534.72
2022-07-29T22:58:49.755Z,101530.75
2022-07-29T23:01:36.021Z,101521.25
2022-07-29T23:04:06.649Z,101503.19
2022-07-29T23:06:35.227Z,101486.47
2022-07-29T23:09:03.476Z,101468.50
2022-07-29T23:11:32.807Z,101469.75
2022-07-29T23:14:00.589Z,101465.66
2022-07-29T23:16:28.462Z,101451.03
2022-07-29T23:18:56.597Z,101450.41
2022-07-29T23:21:26.560Z,101441.50
2022-07-29T23:23:54.525Z,101437.19
2022-07-29T23:26:22.611Z,101433.66
2022-07-29T23:28:52.020Z,101423.53
2022-07-29T23:31:20.137Z,101421.41
2022-07-29T23:33:47.997Z,101408.75
2022-07-29T23:36:15.981Z,101387.16
2022-07-29T23:38:44.246Z,101384.97
2022-07-29T23:41:12.288Z,101360.66
2022-07-29T23:43:40.470Z,101370.34
2022-07-29T23:46:09.797Z,101351.94
2022-07-29T23:48:40.474Z,101343.28
2022-07-29T23:51:08.571Z,101347.78
2022-07-29T23:53:38.650Z,101325.09
2022-07-29T23:56:22.426Z,101332.00
2022-07-29T23:58:50.657Z,101327.88
